createdAt,value
2019-02-15T00:01:45.022Z,2.43
2019-02-15T00:04:21.404Z,2.00
2019-02-15T00:06:57.357Z,2.57
2019-02-15T00:09:35.677Z,2.23
2019-02-15T00:12:10.178Z,2.70
2019-02-15T00:15:04.276Z,2.70
2019-02-15T00:18:13.750Z,3.17
2019-02-15T00:21:03.073Z,2.90
2019-02-15T00:23:39.942Z,3.40
2019-02-15T00:26:20.430Z,3.70
2019-02-15T00:28:53.994Z,3.50
2019-02-15T00:31:30.380Z,3.40
2019-02-15T00:34:07.162Z,2.83
2019-02-15T00:36:45.532Z,2.53
2019-02-15T00:39:20.162Z,2.73
2019-02-15T00:41:50.627Z,3.13
2019-02-15T00:44:27.049Z,3.03
2019-02-15T00:47:17.799Z,3.23
2019-02-15T00:50:25.616Z,3.00
2019-02-15T00:56:16.035Z,2.73
2019-02-15T00:59:04.782Z,4.50
2019-02-15T01:01:56.727Z,3.10
2019-02-15T01:04:38.223Z,2.83
2019-02-15T01:07:48.579Z,3.17
2019-02-15T01:10:42.981Z,2.83
2019-02-15T01:13:31.166Z,2.90
2019-02-15T01:15:59.567Z,2.20
2019-02-15T01:18:38.009Z,2.20
2019-02-15T01:21:09.803Z,2.20
2019-02-15T01:23:46.343Z,2.10
2019-02-15T01:26:38.097Z,2.03
2019-02-15T01:29:29.773Z,2.33
2019-02-15T01:32:40.701Z,4.07
2019-02-15T01:35:26.475Z,2.00
2019-02-15T01:38:20.348Z,1.90
2019-02-15T01:41:07.627Z,2.50
2019-02-15T01:49:35.164Z,2.53
2019-02-15T01:52:05.703Z,2.60
2019-02-15T01:54:42.275Z,2.83
2019-02-15T01:57:24.283Z,2.57
2019-02-15T01:59:58.573Z,2.50
2019-02-15T02:02:36.191Z,2.10
2019-02-15T02:05:07.449Z,2.60
2019-02-15T02:07:44.823Z,2.47
2019-02-15T02:10:23.768Z,2.87
2019-02-15T02:12:56.424Z,2.47
2019-02-15T02:15:28.603Z,2.80
2019-02-15T02:18:02.705Z,2.90
2019-02-15T02:20:38.012Z,2.30
2019-02-15T02:23:07.983Z,2.40
2019-02-15T02:25:47.021Z,2.80
2019-02-15T02:28:24.457Z,2.80
2019-02-15T02:33:37.853Z,2.40
2019-02-15T02:36:17.861Z,2.27
2019-02-15T02:38:50.456Z,2.50
2019-02-15T02:41:29.929Z,2.50
2019-02-15T02:44:06.007Z,2.30
2019-02-15T02:46:42.892Z,2.43
2019-02-15T02:49:18.704Z,2.53
2019-02-15T02:51:50.579Z,2.33
2019-02-15T02:54:24.742Z,2.00
2019-02-15T02:56:58.574Z,2.77
2019-02-15T03:02:11.421Z,2.40
2019-02-15T03:04:45.549Z,2.43
2019-02-15T03:07:17.490Z,2.50
2019-02-15T03:09:55.438Z,2.50
2019-02-15T03:12:30.837Z,2.60
2019-02-15T03:17:45.135Z,2.13
2019-02-15T03:20:31.318Z,2.57
2019-02-15T03:23:00.249Z,2.53
2019-02-15T03:25:33.850Z,2.80
2019-02-15T03:28:06.160Z,2.80
2019-02-15T03:33:25.003Z,2.90
2019-02-15T03:36:02.817Z,2.63
2019-02-15T03:38:51.192Z,2.63
2019-02-15T03:41:33.125Z,2.57
2019-02-15T03:44:07.764Z,3.00
2019-02-15T03:46:43.624Z,2.60
2019-02-15T03:49:15.378Z,2.37
2019-02-15T03:51:50.218Z,3.07
2019-02-15T03:54:30.283Z,2.70
2019-02-15T03:57:03.268Z,2.40
2019-02-15T03:59:36.434Z,2.90
2019-02-15T04:02:16.708Z,2.73
2019-02-15T04:04:48.740Z,2.50
2019-02-15T04:07:23.906Z,2.87
2019-02-15T04:09:55.537Z,2.73
2019-02-15T04:12:27.038Z,2.33
2019-02-15T04:15:03.626Z,2.37
2019-02-15T04:17:34.704Z,2.53
2019-02-15T04:20:07.834Z,2.70
2019-02-15T04:22:41.432Z,2.57
2019-02-15T04:25:16.456Z,2.70
2019-02-15T04:27:52.472Z,3.57
2019-02-15T04:30:25.354Z,2.80
2019-02-15T04:33:05.025Z,2.30
2019-02-15T04:35:40.608Z,2.80
2019-02-15T04:38:14.714Z,2.33
2019-02-15T04:40:48.756Z,2.60
2019-02-15T04:43:24.595Z,2.73
2019-02-15T04:45:56.742Z,2.30
2019-02-15T04:48:29.852Z,2.27
2019-02-15T04:51:06.254Z,2.80
2019-02-15T04:53:39.598Z,2.37
2019-02-15T04:56:15.461Z,2.53
2019-02-15T04:58:53.055Z,2.70
2019-02-15T05:01:28.005Z,3.00
2019-02-15T05:04:07.141Z,2.33
2019-02-15T05:06:40.623Z,2.70
2019-02-15T05:09:16.470Z,2.80
2019-02-15T05:11:50.413Z,2.40
2019-02-15T05:14:23.357Z,2.67
2019-02-15T05:16:57.908Z,2.37
2019-02-15T05:19:31.024Z,2.77
2019-02-15T05:22:03.687Z,2.80
2019-02-15T05:24:33.821Z,2.23
2019-02-15T05:27:05.219Z,2.30
2019-02-15T05:29:35.756Z,2.60
2019-02-15T05:32:08.861Z,2.23
2019-02-15T05:34:47.065Z,2.47
2019-02-15T05:37:18.283Z,2.53
2019-02-15T05:39:50.456Z,2.77
2019-02-15T05:42:25.594Z,2.27
2019-02-15T05:45:03.926Z,2.80
2019-02-15T05:47:33.762Z,2.43
2019-02-15T05:50:11.569Z,2.40
2019-02-15T05:52:50.408Z,2.73
2019-02-15T05:55:21.002Z,2.70
2019-02-15T06:00:40.414Z,2.30
2019-02-15T06:03:18.630Z,2.60
2019-02-15T06:06:00.020Z,2.80
2019-02-15T06:08:37.301Z,2.63
2019-02-15T06:13:47.087Z,2.67
2019-02-15T06:16:21.589Z,2.57
2019-02-15T06:18:57.039Z,2.30
2019-02-15T06:21:31.560Z,2.50
2019-02-15T06:24:06.103Z,2.13
2019-02-15T06:26:40.094Z,3.60
2019-02-15T06:29:15.830Z,2.30
2019-02-15T06:31:53.694Z,2.50
2019-02-15T06:34:28.111Z,2.33
2019-02-15T06:37:00.441Z,1.93
2019-02-15T06:39:35.915Z,2.03
2019-02-15T06:42:18.335Z,2.10
2019-02-15T06:44:54.889Z,1.80
2019-02-15T06:47:37.090Z,1.90
2019-02-15T06:50:09.283Z,2.03
2019-02-15T06:52:46.138Z,2.00
2019-02-15T06:55:20.444Z,2.30
2019-02-15T06:57:59.392Z,2.50
2019-02-15T07:00:57.060Z,2.90
2019-02-15T07:03:53.594Z,2.63
2019-02-15T07:06:30.770Z,2.50
2019-02-15T07:09:07.554Z,3.03
2019-02-15T07:11:46.484Z,2.40
2019-02-15T07:14:39.751Z,2.30
2019-02-15T07:17:30.818Z,1.90
2019-02-15T07:20:08.504Z,2.70
2019-02-15T07:23:01.083Z,2.90
2019-02-15T07:25:34.118Z,4.93
2019-02-15T07:28:16.615Z,2.43
2019-02-15T07:30:59.574Z,2.80
2019-02-15T07:33:44.482Z,2.73
2019-02-15T07:36:19.031Z,2.20
2019-02-15T07:38:50.656Z,2.67
2019-02-15T07:41:29.085Z,3.07
2019-02-15T07:44:05.776Z,2.60
2019-02-15T07:46:40.707Z,2.63
2019-02-15T07:49:12.863Z,2.70
2019-02-15T07:54:30.632Z,2.50
2019-02-15T07:57:09.885Z,3.00
2019-02-15T07:59:41.099Z,2.70
2019-02-15T08:04:55.701Z,2.70
2019-02-15T08:07:29.790Z,3.47
2019-02-15T08:10:01.641Z,2.70
2019-02-15T08:12:37.224Z,3.33
2019-02-15T08:15:10.198Z,3.20
2019-02-15T08:17:45.752Z,3.17
2019-02-15T08:20:19.122Z,3.33
2019-02-15T08:22:56.957Z,3.53
2019-02-15T08:25:32.083Z,3.17
2019-02-15T08:28:12.963Z,3.53
2019-02-15T08:30:49.239Z,3.33
2019-02-15T08:35:57.673Z,3.77
2019-02-15T08:38:38.567Z,2.50
2019-02-15T08:41:14.705Z,3.20
2019-02-15T08:43:47.096Z,4.33
2019-02-15T08:46:24.159Z,3.30
2019-02-15T08:48:59.939Z,3.53
2019-02-15T08:51:32.825Z,3.57
2019-02-15T08:54:08.867Z,3.10
2019-02-15T08:56:41.517Z,3.30
2019-02-15T08:59:15.863Z,4.03
2019-02-15T09:02:00.844Z,3.17
2019-02-15T09:04:34.645Z,3.50
2019-02-15T09:07:06.715Z,3.73
2019-02-15T09:09:38.972Z,3.30
2019-02-15T09:12:09.771Z,3.47
2019-02-15T09:14:44.602Z,3.67
2019-02-15T09:17:15.362Z,3.40
2019-02-15T09:22:28.005Z,3.80
2019-02-15T09:25:07.668Z,5.10
2019-02-15T09:28:14.839Z,3.87
2019-02-15T09:30:56.339Z,4.70
2019-02-15T09:33:29.605Z,3.17
2019-02-15T09:36:04.758Z,4.37
2019-02-15T09:38:37.949Z,3.30
2019-02-15T09:41:25.597Z,3.50
2019-02-15T09:43:57.451Z,3.53
2019-02-15T09:46:36.600Z,3.40
2019-02-15T09:49:09.174Z,3.50
2019-02-15T09:51:42.961Z,3.90
2019-02-15T09:54:14.633Z,3.60
2019-02-15T09:56:48.785Z,3.87
2019-02-15T10:01:59.741Z,3.13
2019-02-15T10:04:31.820Z,2.90
2019-02-15T10:07:04.590Z,3.60
2019-02-15T10:09:41.099Z,3.13
2019-02-15T10:12:11.822Z,3.83
2019-02-15T10:14:45.799Z,2.67
2019-02-15T10:17:17.976Z,3.37
2019-02-15T10:19:50.246Z,3.13
2019-02-15T10:22:21.165Z,2.73
2019-02-15T10:24:55.335Z,3.43
2019-02-15T10:27:27.061Z,2.90
2019-02-15T10:30:04.971Z,3.17
2019-02-15T10:32:38.538Z,2.77
2019-02-15T10:35:09.251Z,2.87
2019-02-15T10:37:42.886Z,2.13
2019-02-15T10:40:15.479Z,2.50
2019-02-15T10:42:47.964Z,2.43
2019-02-15T10:45:20.841Z,2.63
2019-02-15T10:47:55.896Z,2.43
2019-02-15T10:50:28.499Z,2.53
2019-02-15T10:53:03.848Z,2.30
2019-02-15T10:55:33.792Z,2.20
2019-02-15T10:58:04.492Z,2.77
2019-02-15T11:00:37.754Z,3.77
2019-02-15T11:03:10.484Z,3.00
2019-02-15T11:05:42.318Z,2.63
2019-02-15T11:08:16.674Z,2.67
2019-02-15T11:10:48.077Z,3.10
2019-02-15T11:13:20.745Z,2.20
2019-02-15T11:15:51.170Z,2.47
2019-02-15T11:18:24.171Z,2.27
2019-02-15T11:20:56.128Z,2.47
2019-02-15T11:23:28.613Z,1.90
2019-02-15T11:26:04.598Z,2.27
2019-02-15T11:28:36.398Z,2.03
2019-02-15T11:31:09.512Z,2.07
2019-02-15T11:33:39.879Z,2.23
2019-02-15T11:36:11.188Z,2.10
2019-02-15T11:38:48.957Z,2.00
2019-02-15T11:41:20.860Z,2.10
2019-02-15T11:43:54.642Z,1.90
2019-02-15T11:46:29.906Z,2.00
2019-02-15T11:49:05.344Z,2.30
2019-02-15T11:51:40.414Z,2.20
2019-02-15T11:54:12.350Z,1.90
2019-02-15T11:56:44.594Z,1.90
2019-02-15T11:59:16.883Z,2.20
2019-02-15T12:01:51.613Z,2.20
2019-02-15T12:04:24.488Z,1.77
2019-02-15T12:06:57.294Z,1.70
2019-02-15T12:09:31.616Z,1.40
2019-02-15T12:12:10.361Z,1.60
2019-02-15T12:14:36.537Z,2.30
2019-02-15T12:17:07.802Z,1.50
2019-02-15T12:19:38.069Z,1.47
2019-02-15T12:22:14.405Z,2.13
2019-02-15T12:24:45.881Z,1.30
2019-02-15T12:27:18.470Z,1.50
2019-02-15T12:29:51.094Z,1.57
2019-02-15T12:32:36.798Z,1.60
2019-02-15T12:35:08.292Z,1.30
2019-02-15T12:37:40.205Z,1.33
2019-02-15T12:40:10.410Z,1.70
2019-02-15T12:42:47.836Z,1.33
2019-02-15T12:45:17.987Z,1.30
2019-02-15T12:47:50.322Z,1.10
2019-02-15T12:50:22.261Z,1.23
2019-02-15T12:52:54.575Z,1.20
2019-02-15T12:55:25.275Z,1.60
2019-02-15T12:57:57.180Z,0.90
2019-02-15T13:00:27.713Z,1.43
2019-02-15T13:03:00.569Z,1.07
2019-02-15T13:05:33.339Z,1.40
2019-02-15T13:08:05.323Z,1.30
2019-02-15T13:10:40.367Z,1.03
2019-02-15T13:13:10.386Z,1.03
2019-02-15T13:15:46.653Z,1.10
2019-02-15T13:18:23.626Z,1.00
2019-02-15T13:20:58.043Z,0.97
2019-02-15T13:23:30.431Z,1.33
2019-02-15T13:26:09.413Z,1.10
2019-02-15T13:28:45.623Z,1.00
2019-02-15T13:31:18.892Z,1.00
2019-02-15T13:33:49.965Z,0.67
2019-02-15T13:36:21.833Z,0.73
2019-02-15T13:38:55.631Z,0.80
2019-02-15T13:41:30.052Z,0.93
2019-02-15T13:44:06.386Z,1.20
2019-02-15T13:46:37.350Z,1.00
2019-02-15T13:49:09.828Z,0.90
2019-02-15T13:51:41.173Z,0.90
2019-02-15T13:54:14.921Z,0.70
2019-02-15T13:56:45.401Z,0.77
2019-02-15T13:59:20.733Z,0.63
2019-02-15T14:01:51.992Z,0.80
2019-02-15T14:04:27.766Z,0.63
2019-02-15T14:07:00.046Z,0.60
2019-02-15T14:09:36.602Z,0.90
2019-02-15T14:12:06.213Z,0.80
2019-02-15T14:14:40.846Z,0.73
2019-02-15T14:17:12.410Z,1.00
2019-02-15T14:19:48.264Z,0.80
2019-02-15T14:22:20.128Z,0.90
2019-02-15T14:24:55.247Z,1.00
2019-02-15T14:27:28.731Z,1.00
2019-02-15T14:30:04.308Z,0.70
2019-02-15T14:32:37.603Z,0.73
2019-02-15T14:35:13.232Z,0.93
2019-02-15T14:37:44.798Z,0.90
2019-02-15T14:40:23.025Z,0.90
2019-02-15T14:42:57.969Z,1.03
2019-02-15T14:45:33.082Z,1.07
2019-02-15T14:48:08.222Z,1.30
2019-02-15T14:50:43.277Z,1.00
2019-02-15T14:53:16.329Z,0.93
2019-02-15T14:55:54.662Z,1.00
2019-02-15T14:58:26.413Z,1.27
2019-02-15T15:01:00.146Z,1.00
2019-02-15T15:03:34.555Z,1.10
2019-02-15T15:06:10.240Z,1.27
2019-02-15T15:08:45.893Z,1.30
2019-02-15T15:11:20.694Z,0.93
2019-02-15T15:13:55.831Z,0.80
2019-02-15T15:16:37.709Z,1.20
2019-02-15T15:19:15.718Z,1.23
2019-02-15T15:24:28.358Z,1.10
2019-02-15T15:27:00.034Z,0.90
2019-02-15T15:29:39.360Z,1.00
2019-02-15T15:32:14.390Z,1.00
2019-02-15T15:34:55.472Z,1.07
2019-02-15T15:37:25.464Z,1.13
2019-02-15T15:39:58.812Z,1.20
2019-02-15T15:42:34.168Z,1.10
2019-02-15T15:45:14.776Z,1.00
2019-02-15T15:47:50.580Z,1.07
2019-02-15T15:50:28.676Z,1.37
2019-02-15T15:52:59.907Z,1.20
2019-02-15T15:55:31.641Z,1.07
2019-02-15T15:58:06.821Z,1.40
2019-02-15T16:00:39.419Z,1.47
2019-02-15T16:03:13.670Z,1.60
2019-02-15T16:05:44.622Z,1.30
2019-02-15T16:08:23.466Z,1.50
2019-02-15T16:10:55.718Z,1.70
2019-02-15T16:13:30.434Z,1.47
2019-02-15T16:16:00.990Z,1.87
2019-02-15T16:18:35.117Z,1.77
2019-02-15T16:21:08.525Z,1.67
2019-02-15T16:23:43.444Z,1.60
2019-02-15T16:26:15.492Z,1.63
2019-02-15T16:28:50.733Z,2.13
2019-02-15T16:31:21.050Z,1.97
2019-02-15T16:33:55.191Z,1.67
2019-02-15T16:36:27.865Z,1.80
2019-02-15T16:39:04.657Z,2.00
2019-02-15T16:41:36.449Z,1.67
2019-02-15T16:44:09.742Z,2.00
2019-02-15T16:46:39.946Z,2.43
2019-02-15T16:49:13.945Z,1.90
2019-02-15T16:51:45.314Z,1.90
2019-02-15T16:54:19.856Z,2.10
2019-02-15T16:56:50.774Z,1.90
2019-02-15T16:59:28.776Z,2.20
2019-02-15T17:02:02.274Z,1.77
2019-02-15T17:04:37.818Z,2.43
2019-02-15T17:07:15.029Z,2.10
2019-02-15T17:09:46.790Z,1.80
2019-02-15T17:12:25.280Z,1.70
2019-02-15T17:14:56.724Z,2.23
2019-02-15T17:17:34.744Z,2.80
2019-02-15T17:20:05.040Z,2.27
2019-02-15T17:22:38.939Z,2.37
2019-02-15T17:25:09.550Z,2.10
2019-02-15T17:27:45.610Z,2.07
2019-02-15T17:33:03.731Z,3.90
2019-02-15T17:35:39.784Z,2.17
2019-02-15T17:38:17.379Z,2.10
2019-02-15T17:40:54.685Z,2.20
2019-02-15T17:43:31.703Z,2.70
2019-02-15T17:46:04.607Z,2.30
2019-02-15T17:48:36.668Z,2.50
2019-02-15T17:51:13.684Z,2.50
2019-02-15T17:53:49.088Z,2.47
2019-02-15T17:56:25.448Z,2.23
2019-02-15T17:58:58.938Z,2.80
2019-02-15T18:01:32.111Z,3.00
2019-02-15T18:04:02.416Z,2.53
2019-02-15T18:06:37.380Z,2.50
2019-02-15T18:09:09.105Z,2.50
2019-02-15T18:11:43.428Z,2.80
2019-02-15T18:14:16.114Z,3.00
2019-02-15T18:16:54.472Z,3.03
2019-02-15T18:19:34.275Z,2.57
2019-02-15T18:22:13.621Z,2.30
2019-02-15T18:24:48.369Z,2.43
2019-02-15T18:29:59.219Z,2.33
2019-02-15T18:32:33.807Z,3.13
2019-02-15T18:35:08.025Z,2.70
2019-02-15T18:37:41.157Z,2.37
2019-02-15T18:40:18.863Z,2.87
2019-02-15T18:42:51.219Z,3.00
2019-02-15T18:45:24.425Z,2.93
2019-02-15T18:47:59.365Z,2.80
2019-02-15T18:50:37.484Z,3.10
2019-02-15T18:53:17.748Z,2.73
2019-02-15T18:55:50.263Z,2.60
2019-02-15T18:58:21.265Z,2.90
2019-02-15T19:00:57.843Z,2.70
2019-02-15T19:03:35.531Z,2.57
2019-02-15T19:06:05.546Z,2.30
2019-02-15T19:08:37.771Z,2.30
2019-02-15T19:11:15.303Z,2.50
2019-02-15T19:13:49.320Z,2.50
2019-02-15T19:16:19.993Z,3.33
2019-02-15T19:18:55.701Z,3.00
2019-02-15T19:21:27.495Z,3.47
2019-02-15T19:23:59.743Z,2.73
2019-02-15T19:26:31.964Z,2.20
2019-02-15T19:31:44.783Z,2.00
2019-02-15T19:34:23.529Z,2.07
2019-02-15T19:36:59.795Z,2.20
2019-02-15T19:39:30.301Z,2.63
2019-02-15T19:42:14.607Z,2.27
2019-02-15T19:44:46.216Z,2.43
2019-02-15T19:47:23.461Z,2.63
2019-02-15T19:49:58.443Z,2.33
2019-02-15T19:52:30.675Z,2.80
2019-02-15T19:55:07.013Z,2.43
2019-02-15T19:57:37.983Z,2.27
2019-02-15T20:00:19.063Z,2.83
2019-02-15T20:02:49.738Z,3.80
2019-02-15T20:05:24.999Z,3.20
2019-02-15T20:08:00.873Z,3.77
2019-02-15T20:10:34.733Z,3.53
2019-02-15T20:13:05.734Z,2.60
2019-02-15T20:15:40.357Z,2.50
2019-02-15T20:18:14.519Z,2.33
2019-02-15T20:20:45.416Z,2.80
2019-02-15T20:23:18.293Z,2.50
2019-02-15T20:25:49.802Z,2.30
2019-02-15T20:28:27.014Z,2.27
2019-02-15T20:30:56.998Z,1.80
2019-02-15T20:33:33.249Z,2.03
2019-02-15T20:36:04.416Z,2.17
2019-02-15T20:38:40.750Z,2.03
2019-02-15T20:41:14.003Z,2.20
2019-02-15T20:43:47.223Z,1.50
2019-02-15T20:46:23.298Z,1.40
2019-02-15T20:49:04.322Z,1.80
2019-02-15T20:51:28.632Z,2.23
2019-02-15T20:54:04.203Z,1.73
2019-02-15T20:56:36.533Z,1.67
2019-02-15T21:01:44.199Z,2.30
2019-02-15T21:04:15.330Z,2.47
2019-02-15T21:06:45.321Z,3.17
2019-02-15T21:09:15.374Z,2.97
2019-02-15T21:11:45.472Z,2.53
2019-02-15T21:14:15.515Z,2.60
2019-02-15T21:16:50.149Z,2.57
2019-02-15T21:19:20.184Z,2.50
2019-02-15T21:21:53.652Z,2.50
2019-02-15T21:24:24.521Z,2.73
2019-02-15T21:26:55.642Z,3.40
2019-02-15T21:29:26.562Z,2.60
2019-02-15T21:31:58.776Z,2.63
2019-02-15T21:34:30.211Z,3.03
2019-02-15T21:37:03.311Z,2.37
2019-02-15T21:39:38.154Z,2.37
2019-02-15T21:42:10.712Z,1.80
2019-02-15T21:44:41.744Z,1.90
2019-02-15T21:47:16.167Z,1.80
2019-02-15T21:49:48.741Z,2.40
2019-02-15T21:52:21.089Z,2.40
2019-02-15T21:54:57.152Z,2.17
2019-02-15T21:57:29.723Z,2.13
2019-02-15T22:00:01.130Z,2.60
2019-02-15T22:02:34.511Z,2.40
2019-02-15T22:05:04.608Z,2.47
2019-02-15T22:07:40.324Z,2.37
2019-02-15T22:10:15.280Z,2.57
2019-02-15T22:12:49.753Z,1.80
2019-02-15T22:15:27.456Z,2.07
2019-02-15T22:17:58.215Z,2.40
2019-02-15T22:20:35.363Z,2.13
2019-02-15T22:23:09.511Z,3.00
2019-02-15T22:25:48.091Z,2.50
2019-02-15T22:28:22.292Z,2.33
2019-02-15T22:30:56.937Z,2.47
2019-02-15T22:33:29.630Z,2.57
2019-02-15T22:36:04.644Z,2.40
2019-02-15T22:38:38.226Z,2.30
2019-02-15T22:41:16.972Z,2.20
2019-02-15T22:43:48.833Z,1.90
2019-02-15T22:46:23.088Z,2.00
2019-02-15T22:48:57.790Z,2.13
2019-02-15T22:51:29.856Z,2.17
2019-02-15T22:54:02.678Z,2.03
2019-02-15T22:56:37.286Z,2.17
2019-02-15T22:59:09.021Z,1.70
2019-02-15T23:01:40.179Z,1.80
2019-02-15T23:04:17.782Z,2.00
2019-02-15T23:06:49.102Z,2.43
2019-02-15T23:09:28.247Z,2.37
2019-02-15T23:12:02.563Z,2.87
2019-02-15T23:14:37.904Z,2.60
2019-02-15T23:17:13.220Z,2.33
2019-02-15T23:19:45.122Z,2.13
2019-02-15T23:22:17.689Z,2.30
2019-02-15T23:24:47.893Z,2.40
2019-02-15T23:27:20.907Z,2.13
2019-02-15T23:29:54.084Z,2.60
2019-02-15T23:32:30.557Z,1.87
2019-02-15T23:35:02.647Z,2.10
2019-02-15T23:37:36.124Z,2.17
2019-02-15T23:40:09.734Z,2.17
2019-02-15T23:42:48.350Z,2.67
2019-02-15T23:45:19.005Z,1.67
2019-02-15T23:47:57.072Z,1.97
2019-02-15T23:50:28.460Z,2.37
2019-02-15T23:52:59.836Z,2.40
2019-02-15T23:55:31.754Z,1.93
2019-02-15T23:58:04.960Z,2.00
